< < Back
Terminal Aerodrome Forecast


Current Version              Previous Versions:   1  2  3  4  5  6  7  8  9  

Terminal Aerodrome Forecast

712
FTUS44 KBMX 021100
TAFTCL
TAF
KTCL 021136Z 0212/0312 00000KT P6SM FEW005 SCT018 BKN180
     FM021500 22006KT P6SM SCT050 SCT150
     FM030000 00000KT P6SM SCT150=

Latest METAR

258
SAUS70 KWBC 021700 RRJ
MTRTCL
METAR KTCL 021653Z VRB03KT 10SM CLR 31/22 A3008 RMK AO2 SLP182
T03110222


USA.gov is the U.S. government's official web portal to all federal, state and local government web resources and services.